Time;durP1;ratioP1;P1;durP2;ratioP2;P2;SDS_P1;SDS_P2;PMS_P1;PMS_P2;Temp;Humidity;BMP_temperature;BMP_pressure;BME280_temperature;BME280_humidity;BME280_pressure;Samples;Min_cycle;Max_cycle;Signal;HPM_P1;HPM_P2
2023/10/12 00:00:41;;;;;;;2.55;0.98;;;18.40;61.00;;;;;;6052810;23;20159;-86
2023/10/12 00:03:12;;;;;;;4.15;1.23;;;18.40;61.00;;;;;;6099803;23;20214;-82
2023/10/12 00:05:44;;;;;;;1.65;1.00;;;18.40;61.00;;;;;;6028747;23;20158;-84
2023/10/12 00:08:10;;;;;;;2.72;1.13;;;18.40;61.10;;;;;;6101030;23;20192;-84
2023/10/12 00:10:41;;;;;;;3.53;1.30;;;18.40;61.00;;;;;;6099395;23;20157;-83
2023/10/12 00:13:11;;;;;;;2.17;1.27;;;18.40;60.90;;;;;;6100755;23;20132;-84
2023/10/12 00:15:45;;;;;;;2.65;0.93;;;18.40;60.90;;;;;;6028255;23;20192;-83
2023/10/12 00:18:14;;;;;;;1.88;1.00;;;18.40;61.00;;;;;;6103148;23;20139;-82
2023/10/12 00:20:39;;;;;;;1.63;0.93;;;18.40;60.90;;;;;;6077813;23;20156;-82
2023/10/12 00:23:10;;;;;;;1.98;1.10;;;18.40;60.70;;;;;;6077628;23;20208;-84
2023/10/12 00:25:47;;;;;;;1.83;1.17;;;18.40;60.80;;;;;;6102151;23;20468;-84
2023/10/12 00:28:17;;;;;;;1.52;1.00;;;18.40;60.90;;;;;;6055279;23;20206;-83
2023/10/12 00:30:47;;;;;;;3.10;1.15;;;18.40;61.00;;;;;;6077500;23;20498;-84
2023/10/12 00:33:17;;;;;;;4.45;1.08;;;18.30;61.60;;;;;;6053597;23;20469;-87
2023/10/12 00:35:52;;;;;;;3.33;1.05;;;18.40;60.90;;;;;;6053075;23;20182;-84
2023/10/12 00:38:18;;;;;;;1.60;0.88;;;18.40;60.90;;;;;;6030703;23;20235;-82
2023/10/12 00:41:02;;;;;;;1.88;1.27;;;18.40;60.90;;;;;;6077296;23;20584;-85
2023/10/12 00:43:33;;;;;;;2.30;1.13;;;18.30;60.90;;;;;;6126998;23;20171;-83
2023/10/12 00:46:16;;;;;;;2.13;1.10;;;18.30;61.00;;;;;;6078311;23;20152;-84
2023/10/12 00:48:48;;;;;;;2.13;1.20;;;18.30;61.00;;;;;;6041604;23;20222;-84
2023/10/12 00:51:16;;;;;;;2.53;1.00;;;18.30;61.00;;;;;;6077837;23;20148;-83
2023/10/12 00:53:55;;;;;;;3.90;1.17;;;18.40;61.00;;;;;;6100152;23;20166;-83
2023/10/12 00:56:22;;;;;;;2.35;0.80;;;18.30;61.20;;;;;;6079815;23;20151;-82
2023/10/12 00:58:50;;;;;;;2.95;1.00;;;18.30;61.10;;;;;;6076712;23;20196;-85
2023/10/12 01:01:18;;;;;;;2.08;1.13;;;18.30;61.20;;;;;;6076982;23;20283;-85
2023/10/12 01:03:45;;;;;;;2.40;1.00;;;18.30;61.20;;;;;;6077095;23;20202;-84
2023/10/12 01:06:13;;;;;;;2.08;0.95;;;18.30;61.40;;;;;;6053250;23;20639;-87
2023/10/12 01:08:48;;;;;;;1.50;0.90;;;18.30;61.20;;;;;;6077546;23;20151;-85
2023/10/12 01:11:20;;;;;;;2.03;1.10;;;18.30;61.10;;;;;;6078362;23;20151;-86
2023/10/12 01:13:49;;;;;;;1.55;1.02;;;18.30;61.30;;;;;;6102310;23;20139;-83
2023/10/12 01:16:23;;;;;;;2.72;1.20;;;18.30;62.00;;;;;;6100853;23;20136;-83
2023/10/12 01:21:30;;;;;;;2.10;1.30;;;18.30;61.20;;;;;;6126702;23;20140;-86
2023/10/12 01:24:01;;;;;;;1.70;0.93;;;18.30;61.50;;;;;;6099416;23;20191;-86
2023/10/12 01:26:31;;;;;;;2.60;0.93;;;18.30;61.50;;;;;;6078136;23;20148;-85
2023/10/12 01:28:59;;;;;;;2.60;1.20;;;18.30;61.50;;;;;;6101796;23;20144;-86
2023/10/12 01:31:28;;;;;;;1.95;1.30;;;18.30;61.50;;;;;;6101304;23;20136;-86
2023/10/12 01:33:55;;;;;;;1.20;0.90;;;18.30;61.40;;;;;;6101525;23;20136;-86
2023/10/12 01:36:22;;;;;;;1.70;1.10;;;18.30;61.50;;;;;;6076724;23;20187;-86
2023/10/12 01:38:50;;;;;;;1.70;0.90;;;18.30;61.50;;;;;;6100982;23;20136;-84
2023/10/12 01:41:25;;;;;;;2.45;1.10;;;18.30;61.50;;;;;;6100807;23;20132;-84
2023/10/12 01:43:52;;;;;;;3.15;0.95;;;18.30;61.60;;;;;;6033347;23;20191;-86
2023/10/12 01:46:22;;;;;;;2.40;1.20;;;18.30;61.60;;;;;;6100524;23;20144;-86
2023/10/12 01:48:49;;;;;;;1.85;1.23;;;18.20;61.60;;;;;;6006304;23;20211;-80
2023/10/12 01:51:17;;;;;;;2.72;1.08;;;18.30;61.60;;;;;;6100907;23;20133;-85
2023/10/12 01:53:44;;;;;;;1.52;0.82;;;18.30;61.60;;;;;;6100065;23;20233;-83
2023/10/12 01:56:10;;;;;;;2.97;0.95;;;18.20;61.50;;;;;;6051717;23;20163;-83
2023/10/12 01:58:37;;;;;;;3.55;1.13;;;18.30;61.50;;;;;;6091955;23;20208;-85
2023/10/12 02:01:05;;;;;;;2.95;1.13;;;18.40;61.70;;;;;;6047642;23;20466;-86
2023/10/12 02:03:32;;;;;;;1.75;1.00;;;18.30;61.50;;;;;;6071934;23;20589;-85
2023/10/12 02:05:59;;;;;;;4.18;1.00;;;18.30;61.70;;;;;;6047672;23;20145;-82
2023/10/12 02:08:32;;;;;;;1.38;1.00;;;18.20;61.60;;;;;;6047976;23;20239;-83
2023/10/12 02:13:41;;;;;;;2.78;1.00;;;18.30;61.80;;;;;;6074103;23;20565;-82
2023/10/12 02:16:07;;;;;;;1.35;1.00;;;18.20;61.60;;;;;;6048595;23;20141;-82
2023/10/12 02:18:34;;;;;;;1.80;0.90;;;18.30;61.80;;;;;;6047687;23;20176;-82
2023/10/12 02:21:10;;;;;;;1.58;0.80;;;18.30;61.80;;;;;;6047687;23;20235;-83
2023/10/12 02:23:39;;;;;;;2.45;1.13;;;18.30;61.90;;;;;;6051839;23;20228;-84
2023/10/12 02:26:10;;;;;;;3.15;1.10;;;18.30;61.80;;;;;;6047824;23;20205;-83
2023/10/12 02:28:38;;;;;;;1.35;0.70;;;18.20;61.80;;;;;;6025961;23;20525;-84
2023/10/12 02:31:05;;;;;;;3.58;1.00;;;18.20;61.80;;;;;;6047879;23;20836;-85
2023/10/12 02:33:36;;;;;;;2.05;0.80;;;18.20;61.80;;;;;;6047610;23;20180;-84
2023/10/12 02:36:06;;;;;;;1.30;0.95;;;18.30;61.70;;;;;;6071490;23;20148;-84
2023/10/12 02:38:34;;;;;;;2.80;1.23;;;18.20;61.90;;;;;;6096537;23;20157;-84
2023/10/12 02:41:04;;;;;;;1.23;1.00;;;18.20;61.80;;;;;;6071118;23;20136;-85
2023/10/12 02:43:32;;;;;;;1.42;1.10;;;18.20;61.80;;;;;;5997535;23;20188;-80
2023/10/12 02:46:22;;;;;;;2.00;1.00;;;18.20;62.00;;;;;;6097130;23;20554;-85
2023/10/12 02:48:47;;;;;;;1.45;1.00;;;18.30;61.90;;;;;;6024541;23;20232;-85
2023/10/12 02:51:17;;;;;;;2.85;1.10;;;18.20;61.80;;;;;;6096696;23;20204;-82
2023/10/12 02:53:44;;;;;;;1.88;1.10;;;18.20;61.80;;;;;;5999215;23;20183;-85
2023/10/12 02:56:11;;;;;;;1.73;1.20;;;18.30;61.80;;;;;;6047644;23;20153;-83
2023/10/12 02:58:37;;;;;;;1.58;1.08;;;18.30;62.00;;;;;;6031545;23;20226;-85
2023/10/12 03:01:19;;;;;;;2.92;1.05;;;18.30;61.90;;;;;;6100359;23;20133;-85
2023/10/12 03:03:48;;;;;;;2.85;1.20;;;18.20;61.90;;;;;;6099655;23;20651;-83
2023/10/12 03:06:20;;;;;;;2.60;1.13;;;18.20;61.80;;;;;;6124519;23;20203;-84
2023/10/12 03:11:31;;;;;;;1.40;0.90;;;18.20;61.90;;;;;;6103149;23;20159;-81
2023/10/12 03:14:00;;;;;;;1.60;1.00;;;18.20;62.00;;;;;;6100337;23;20140;-82
2023/10/12 03:16:34;;;;;;;2.80;1.15;;;18.20;61.90;;;;;;6099544;23;20528;-85
2023/10/12 03:19:00;;;;;;;2.15;1.00;;;18.20;61.90;;;;;;6101229;23;20133;-84
2023/10/12 03:21:33;;;;;;;1.40;0.88;;;18.20;62.00;;;;;;6075696;23;20774;-82
2023/10/12 03:24:03;;;;;;;1.98;1.08;;;18.20;62.00;;;;;;6076306;23;20192;-86
2023/10/12 03:26:29;;;;;;;3.00;1.20;;;18.20;62.20;;;;;;6052699;23;20155;-83
2023/10/12 03:31:56;;;;;;;1.45;0.80;;;18.20;62.10;;;;;;6060880;23;20160;-82
2023/10/12 03:36:59;;;;;;;2.15;0.90;;;18.20;62.00;;;;;;6124356;23;20191;-84
2023/10/12 03:39:27;;;;;;;1.15;0.80;;;18.20;62.10;;;;;;6076099;23;20160;-83
2023/10/12 03:41:55;;;;;;;2.03;1.00;;;18.20;62.30;;;;;;6099691;23;20155;-81
2023/10/12 03:44:35;;;;;;;1.80;0.85;;;18.20;62.10;;;;;;6124174;23;20410;-82
2023/10/12 03:47:05;;;;;;;2.45;0.98;;;18.30;62.30;;;;;;6102539;23;20552;-83
2023/10/12 03:49:32;;;;;;;1.85;1.10;;;18.20;62.30;;;;;;6100151;23;20140;-84
2023/10/12 03:52:02;;;;;;;1.83;0.77;;;18.20;62.40;;;;;;6100979;23;20230;-85
2023/10/12 03:54:29;;;;;;;2.20;1.08;;;18.20;62.50;;;;;;6125360;23;20648;-85
2023/10/12 03:57:06;;;;;;;2.15;1.20;;;18.20;62.40;;;;;;6127421;23;20132;-84
2023/10/12 03:59:44;;;;;;;1.88;1.00;;;18.20;62.40;;;;;;6126052;23;20187;-84
2023/10/12 04:02:15;;;;;;;2.38;1.10;;;18.10;62.40;;;;;;6079860;23;20600;-84
2023/10/12 04:07:19;;;;;;;1.30;1.00;;;18.20;62.40;;;;;;6104077;23;20136;-85
2023/10/12 04:09:52;;;;;;;1.77;1.10;;;18.20;62.50;;;;;;6127488;23;20228;-86
2023/10/12 04:12:35;;;;;;;2.17;1.15;;;18.20;62.40;;;;;;6102062;23;20136;-82
2023/10/12 04:15:06;;;;;;;2.00;0.88;;;18.10;62.40;;;;;;6061506;23;20151;-83
2023/10/12 04:20:14;;;;;;;3.25;0.98;;;18.20;62.50;;;;;;6127314;23;20476;-84
2023/10/12 04:23:15;;;;;;;2.45;1.05;;;18.20;62.40;;;;;;6103233;23;20159;-83
2023/10/12 04:25:32;;;;;;;1.70;1.00;;;18.20;62.50;;;;;;6064963;23;20534;-83
2023/10/12 04:33:24;;;;;;;1.33;0.90;;;18.30;62.40;;;;;;6038862;23;20156;-82
2023/10/12 04:41:37;;;;;;;2.38;1.00;;;18.20;62.50;;;;;;6105771;23;20234;-84
2023/10/12 04:44:25;;;;;;;2.58;0.93;;;18.10;62.50;;;;;;6104886;23;20183;-84
2023/10/12 04:46:51;;;;;;;1.15;0.88;;;18.20;62.50;;;;;;6105280;23;20615;-82
2023/10/12 04:52:17;;;;;;;2.47;0.90;;;18.20;62.50;;;;;;6085232;23;20155;-82
2023/10/12 04:55:06;;;;;;;1.50;0.75;;;18.20;63.30;;;;;;6036546;23;20699;-83
2023/10/12 04:57:33;;;;;;;2.45;1.05;;;18.10;62.60;;;;;;6019285;23;20152;-84
2023/10/12 05:08:10;;;;;;;2.28;1.00;;;18.10;62.80;;;;;;6085084;23;20147;-84
2023/10/12 05:13:19;;;;;;;1.65;1.10;;;18.10;62.70;;;;;;6104273;23;20516;-84
2023/10/12 05:15:54;;;;;;;1.90;1.02;;;18.20;62.90;;;;;;6126545;23;20145;-82
2023/10/12 05:18:22;;;;;;;1.63;0.88;;;18.20;62.80;;;;;;6034584;23;20239;-81
2023/10/12 05:20:47;;;;;;;2.00;1.10;;;18.20;62.80;;;;;;6077176;23;20246;-83
2023/10/12 05:23:13;;;;;;;3.25;0.82;;;18.20;62.90;;;;;;6100793;23;20211;-81
2023/10/12 05:28:27;;;;;;;1.25;0.90;;;18.10;62.80;;;;;;6126519;23;20569;-83
2023/10/12 05:30:59;;;;;;;1.83;0.90;;;18.20;62.90;;;;;;6053938;23;20167;-81
2023/10/12 05:34:00;;;;;;;2.03;1.20;;;18.10;62.90;;;;;;6077386;23;20604;-84
2023/10/12 05:36:14;;;;;;;1.70;1.15;;;18.10;63.00;;;;;;6104793;23;20218;-83
2023/10/12 05:39:11;;;;;;;2.33;1.33;;;18.10;62.70;;;;;;6028210;23;20235;-83
2023/10/12 05:41:35;;;;;;;1.30;0.65;;;18.20;62.80;;;;;;6104635;23;20232;-86
2023/10/12 05:44:03;;;;;;;1.42;0.80;;;18.20;62.20;;;;;;6077846;23;20207;-85
2023/10/12 05:46:33;;;;;;;1.60;1.00;;;18.30;61.80;;;;;;6100992;23;20136;-87
2023/10/12 05:48:59;;;;;;;0.93;0.70;;;18.30;61.50;;;;;;6101755;23;20128;-84
2023/10/12 05:51:25;;;;;;;1.23;0.60;;;18.30;61.20;;;;;;6100594;23;20143;-86
2023/10/12 05:56:30;;;;;;;36.13;2.60;;;18.40;60.80;;;;;;6103064;23;20137;-81
2023/10/12 05:58:56;;;;;;;16.55;1.75;;;18.40;60.60;;;;;;6100760;23;20195;-82
2023/10/12 06:03:59;;;;;;;6.35;1.10;;;18.40;60.10;;;;;;6102656;23;20183;-85
2023/10/12 06:06:25;;;;;;;2.97;0.77;;;18.40;60.00;;;;;;6100323;23;20173;-84
2023/10/12 06:08:52;;;;;;;3.30;1.02;;;18.40;60.00;;;;;;6100422;23;20141;-85
2023/10/12 06:11:26;;;;;;;1.17;0.80;;;18.50;59.80;;;;;;6076740;23;20487;-81
2023/10/12 06:13:52;;;;;;;1.23;0.80;;;18.50;59.80;;;;;;6008251;23;20599;-81
2023/10/12 06:16:20;;;;;;;1.23;0.57;;;18.40;59.70;;;;;;6051906;23;20183;-85
2023/10/12 06:18:46;;;;;;;1.23;0.70;;;18.40;59.60;;;;;;6077161;23;20160;-84
2023/10/12 06:21:17;;;;;;;2.42;0.70;;;18.50;59.60;;;;;;6100625;23;20140;-84
2023/10/12 06:23:48;;;;;;;1.65;0.52;;;18.40;59.60;;;;;;6100836;23;20171;-83
2023/10/12 06:26:28;;;;;;;1.40;0.60;;;18.50;59.60;;;;;;6100568;23;20155;-85
2023/10/12 06:28:56;;;;;;;1.35;0.60;;;18.50;59.60;;;;;;6102766;23;20128;-84
2023/10/12 06:31:21;;;;;;;0.90;0.57;;;18.40;59.50;;;;;;6100346;23;20452;-83
2023/10/12 06:33:49;;;;;;;1.45;0.77;;;18.40;59.30;;;;;;6100278;23;20698;-82
2023/10/12 06:36:16;;;;;;;1.40;0.60;;;18.50;59.60;;;;;;6076470;23;20152;-81
2023/10/12 06:43:59;;;;;;;1.40;0.88;;;18.50;59.40;;;;;;6102997;23;20171;-85
2023/10/12 06:46:28;;;;;;;0.90;0.52;;;18.40;59.50;;;;;;6076004;23;20219;-82
2023/10/12 06:49:03;;;;;;;2.53;0.60;;;18.40;59.30;;;;;;6125929;23;20135;-83
2023/10/12 06:51:28;;;;;;;2.58;0.75;;;18.40;59.40;;;;;;6077831;23;20639;-85
2023/10/12 06:54:05;;;;;;;0.90;0.70;;;18.40;59.30;;;;;;6074803;23;20152;-84
2023/10/12 06:56:32;;;;;;;0.77;0.50;;;18.40;59.20;;;;;;6102768;23;20139;-83
2023/10/12 07:04:27;;;;;;;1.05;0.43;;;18.50;59.30;;;;;;6125750;23;20635;-84
2023/10/12 07:06:56;;;;;;;2.65;0.55;;;18.40;58.70;;;;;;6100173;23;20154;-83
2023/10/12 07:09:27;;;;;;;1.90;0.70;;;18.40;59.30;;;;;;6125264;23;20135;-83
2023/10/12 07:11:53;;;;;;;1.35;0.57;;;18.40;59.10;;;;;;6076269;23;20152;-81
2023/10/12 07:14:30;;;;;;;0.98;0.50;;;18.40;59.10;;;;;;6100490;23;20231;-84
2023/10/12 07:16:56;;;;;;;1.08;0.70;;;18.40;59.20;;;;;;6125820;23;20132;-83
2023/10/12 07:19:24;;;;;;;1.40;0.70;;;18.40;59.30;;;;;;6125425;23;20137;-82
2023/10/12 07:21:55;;;;;;;1.85;0.65;;;18.40;59.00;;;;;;6101109;23;20128;-81
2023/10/12 07:24:23;;;;;;;0.90;0.50;;;18.40;58.90;;;;;;6028988;23;20170;-84
2023/10/12 07:26:49;;;;;;;1.15;0.60;;;18.50;58.70;;;;;;6100635;23;20135;-83
2023/10/12 07:29:20;;;;;;;1.15;0.70;;;18.40;58.60;;;;;;6100045;23;20611;-84
2023/10/12 07:31:59;;;;;;;1.13;0.50;;;18.50;58.50;;;;;;6058409;23;20159;-83
2023/10/12 07:34:24;;;;;;;0.90;0.47;;;18.50;58.70;;;;;;6052146;23;20152;-83
2023/10/12 07:36:53;;;;;;;0.88;0.50;;;18.50;58.70;;;;;;6101949;23;20179;-86
2023/10/12 07:39:20;;;;;;;1.55;0.70;;;18.40;58.70;;;;;;6101977;23;20186;-86
2023/10/12 07:44:36;;;;;;;1.05;0.40;;;18.50;58.70;;;;;;6104633;23;20179;-81
2023/10/12 07:47:03;;;;;;;1.02;0.63;;;18.40;58.50;;;;;;6079277;23;20584;-81
2023/10/12 07:49:37;;;;;;;0.88;0.52;;;18.50;58.30;;;;;;6102051;23;20153;-82
2023/10/12 07:52:22;;;;;;;2.95;0.55;;;18.50;58.30;;;;;;6079885;23;20171;-83
2023/10/12 07:57:29;;;;;;;1.48;0.60;;;18.60;58.00;;;;;;6102216;23;20136;-84
2023/10/12 08:00:18;;;;;;;2.45;0.50;;;18.60;57.90;;;;;;6102165;23;20187;-83
2023/10/12 08:03:07;;;;;;;3.58;0.60;;;18.60;57.90;;;;;;6064350;23;20180;-85
2023/10/12 08:05:43;;;;;;;0.75;0.40;;;18.50;58.00;;;;;;6105625;23;20151;-84
2023/10/12 08:08:09;;;;;;;1.63;0.63;;;18.60;58.00;;;;;;6103575;23;20135;-85
2023/10/12 08:13:32;;;;;;;1.10;0.50;;;18.60;58.00;;;;;;6104818;23;20279;-85
2023/10/12 08:15:59;;;;;;;0.98;0.45;;;18.60;57.60;;;;;;6081298;23;20152;-85
2023/10/12 08:21:31;;;;;;;1.02;0.47;;;18.70;57.40;;;;;;6088717;23;20148;-83
2023/10/12 08:26:47;;;;;;;0.88;0.50;;;18.70;57.50;;;;;;6108255;23;20588;-84
2023/10/12 08:32:10;;;;;;;1.23;0.32;;;18.60;57.30;;;;;;5999956;23;20643;-86
2023/10/12 08:35:10;;;;;;;0.55;0.30;;;18.60;57.50;;;;;;6014492;23;20186;-85
2023/10/12 08:37:26;;;;;;;0.93;0.40;;;18.70;57.30;;;;;;6020665;23;20150;-85
2023/10/12 08:40:07;;;;;;;0.45;0.30;;;18.70;57.40;;;;;;5972029;23;20154;-84
2023/10/12 08:42:55;;;;;;;1.52;0.70;;;18.60;57.20;;;;;;5996067;23;20187;-83
2023/10/12 08:45:20;;;;;;;0.85;0.35;;;18.60;57.30;;;;;;6021325;23;20169;-81
2023/10/12 08:47:51;;;;;;;1.10;0.50;;;18.60;57.00;;;;;;6017413;23;20146;-85
2023/10/12 08:53:03;;;;;;;1.27;0.60;;;18.70;56.90;;;;;;6010662;23;20161;-86
2023/10/12 08:55:31;;;;;;;1.10;0.47;;;18.70;56.70;;;;;;6077358;23;20137;-84
2023/10/12 08:58:11;;;;;;;0.63;0.40;;;18.70;56.90;;;;;;6078669;23;20190;-86
2023/10/12 09:00:40;;;;;;;0.73;0.50;;;18.70;56.80;;;;;;6102868;23;20584;-83
2023/10/12 09:03:24;;;;;;;0.88;0.50;;;18.70;56.70;;;;;;6079376;23;20195;-86
2023/10/12 09:05:51;;;;;;;0.68;0.30;;;18.70;56.90;;;;;;6042100;23;20596;-84
2023/10/12 09:11:16;;;;;;;0.45;0.35;;;18.70;56.80;;;;;;6046317;23;20156;-85
2023/10/12 09:13:46;;;;;;;1.10;0.45;;;18.60;56.80;;;;;;6081671;23;20156;-88
2023/10/12 09:16:15;;;;;;;1.38;0.63;;;18.60;56.80;;;;;;6103365;23;20136;-88
2023/10/12 09:18:44;;;;;;;0.52;0.30;;;18.70;57.00;;;;;;6054591;23;20156;-86
2023/10/12 09:24:05;;;;;;;0.45;0.40;;;18.70;57.00;;;;;;6127857;23;20222;-84
2023/10/12 09:26:34;;;;;;;0.90;0.40;;;18.70;56.90;;;;;;6105025;23;20140;-83
2023/10/12 09:29:08;;;;;;;0.85;0.38;;;18.70;56.80;;;;;;6127150;23;20139;-85
2023/10/12 09:37:06;;;;;;;1.75;0.47;;;18.80;56.20;;;;;;6060042;23;20152;-86
2023/10/12 09:39:34;;;;;;;1.40;0.50;;;18.80;55.90;;;;;;6053253;23;20211;-86
2023/10/12 09:42:09;;;;;;;0.88;0.40;;;18.80;56.10;;;;;;6100331;23;20152;-86
2023/10/12 09:44:39;;;;;;;0.60;0.50;;;18.80;56.10;;;;;;6078414;23;20151;-85
2023/10/12 09:47:11;;;;;;;0.50;0.30;;;18.80;55.80;;;;;;6101724;23;20129;-83
2023/10/12 09:49:43;;;;;;;0.70;0.30;;;18.90;56.10;;;;;;6006529;23;20539;-84
2023/10/12 09:52:13;;;;;;;0.35;0.30;;;18.90;55.80;;;;;;6077822;23;20160;-85
2023/10/12 09:54:56;;;;;;;1.00;0.45;;;18.80;55.60;;;;;;6100026;23;20576;-84
2023/10/12 09:57:23;;;;;;;0.80;0.20;;;18.90;55.50;;;;;;6126940;23;20207;-84
2023/10/12 09:59:52;;;;;;;1.73;0.40;;;18.90;55.30;;;;;;6101236;23;20199;-84
2023/10/12 10:07:52;;;;;;;0.68;0.40;;;18.90;55.00;;;;;;6105920;23;20131;-82
2023/10/12 10:10:27;;;;;;;3.22;0.38;;;18.90;55.30;;;;;;6103171;23;20128;-85
2023/10/12 10:12:53;;;;;;;0.85;0.40;;;18.90;55.20;;;;;;6079173;23;20264;-83
2023/10/12 10:15:24;;;;;;;1.05;0.30;;;18.90;54.60;;;;;;6102591;23;20144;-83
2023/10/12 10:17:53;;;;;;;0.40;0.20;;;19.00;54.90;;;;;;6077483;23;20214;-85
2023/10/12 10:20:46;;;;;;;0.43;0.20;;;19.00;54.70;;;;;;6076561;23;20579;-80
2023/10/12 10:23:14;;;;;;;1.00;0.30;;;18.90;54.70;;;;;;6127362;23;20183;-81
2023/10/12 10:25:47;;;;;;;2.00;0.60;;;19.00;54.70;;;;;;6053920;23;20290;-81
2023/10/12 10:28:18;;;;;;;0.30;0.30;;;19.00;54.50;;;;;;6070523;23;20171;-80
2023/10/12 10:30:49;;;;;;;1.10;0.30;;;19.00;54.30;;;;;;6102110;23;20179;-85
2023/10/12 10:33:20;;;;;;;0.65;0.20;;;19.00;54.20;;;;;;6079119;23;20180;-82
2023/10/12 10:36:17;;;;;;;0.80;0.30;;;19.00;54.00;;;;;;6101884;23;20156;-81
2023/10/12 10:38:53;;;;;;;1.05;0.43;;;19.10;53.50;;;;;;6128201;23;20156;-84
2023/10/12 10:44:00;;;;;;;0.50;0.30;;;19.00;53.50;;;;;;6128441;23;20175;-81
2023/10/12 10:46:26;;;;;;;1.40;0.30;;;19.00;53.50;;;;;;6128945;23;20326;-86
2023/10/12 10:48:53;;;;;;;1.17;0.20;;;18.90;53.70;;;;;;6103243;23;20588;-83
2023/10/12 10:51:24;;;;;;;0.80;0.40;;;18.90;53.60;;;;;;6103154;23;20215;-80
2023/10/12 10:53:52;;;;;;;0.28;0.20;;;19.00;53.50;;;;;;6099443;23;20152;-81
2023/10/12 10:56:32;;;;;;;0.43;0.30;;;18.90;53.50;;;;;;6127802;23;20136;-82
2023/10/12 10:58:59;;;;;;;0.63;0.28;;;19.00;53.30;;;;;;6102861;23;20192;-79
2023/10/12 11:01:26;;;;;;;0.90;0.40;;;19.00;53.20;;;;;;6100303;23;20148;-86
2023/10/12 11:03:52;;;;;;;0.70;0.20;;;19.00;53.00;;;;;;6127063;23;20203;-82
2023/10/12 11:06:22;;;;;;;0.20;0.20;;;18.90;52.90;;;;;;6126448;23;20132;-85
2023/10/12 11:09:02;;;;;;;0.60;0.30;;;18.90;52.90;;;;;;6100914;23;20128;-82
2023/10/12 11:11:37;;;;;;;1.15;0.40;;;19.00;52.80;;;;;;6100290;23;20151;-81
2023/10/12 11:14:04;;;;;;;0.55;0.30;;;19.00;52.50;;;;;;6077418;23;20159;-85
2023/10/12 11:16:30;;;;;;;1.05;0.30;;;19.10;52.50;;;;;;6126452;23;20223;-84
2023/10/12 11:18:57;;;;;;;1.73;0.40;;;19.00;52.20;;;;;;6100608;23;20168;-84
2023/10/12 11:21:25;;;;;;;1.00;0.38;;;19.00;52.30;;;;;;6125891;23;20144;-80
2023/10/12 11:23:56;;;;;;;0.68;0.30;;;19.00;52.40;;;;;;6126877;23;20168;-80
2023/10/12 11:26:22;;;;;;;0.45;0.32;;;19.00;52.10;;;;;;6125441;23;20135;-81
2023/10/12 11:29:06;;;;;;;1.30;0.30;;;19.10;51.90;;;;;;6125525;23;20152;-80
2023/10/12 11:31:33;;;;;;;0.50;0.20;;;19.10;51.70;;;;;;6101699;23;20144;-83
2023/10/12 11:33:59;;;;;;;0.38;0.20;;;19.10;51.50;;;;;;6103828;23;20143;-85
2023/10/12 11:36:25;;;;;;;2.90;0.38;;;19.10;51.50;;;;;;6079071;23;20197;-82
2023/10/12 11:39:13;;;;;;;1.58;0.30;;;19.10;51.70;;;;;;6127885;23;20151;-81
2023/10/12 11:41:38;;;;;;;1.58;0.30;;;19.10;51.60;;;;;;6101943;23;20150;-82
2023/10/12 11:44:07;;;;;;;1.15;0.20;;;19.10;51.40;;;;;;6127580;23;20554;-84
2023/10/12 11:46:45;;;;;;;2.05;0.30;;;19.10;51.60;;;;;;6055097;23;20152;-83
2023/10/12 11:49:15;;;;;;;1.55;0.40;;;19.10;51.20;;;;;;6103555;23;20600;-84
2023/10/12 11:51:51;;;;;;;0.93;0.38;;;19.10;51.20;;;;;;6127192;23;20468;-85
2023/10/12 11:54:19;;;;;;;1.60;0.30;;;19.00;51.10;;;;;;6057616;23;20163;-81
2023/10/12 11:56:59;;;;;;;0.55;0.32;;;19.10;51.20;;;;;;6103668;23;20136;-82
2023/10/12 11:59:32;;;;;;;1.13;0.30;;;19.20;51.00;;;;;;6101549;23;20229;-83
2023/10/12 12:02:08;;;;;;;2.30;0.32;;;19.10;51.10;;;;;;6078573;23;20657;-82
2023/10/12 12:04:43;;;;;;;0.45;0.38;;;19.20;51.00;;;;;;6080523;23;20144;-84
2023/10/12 12:07:13;;;;;;;0.40;0.30;;;19.20;50.70;;;;;;6080845;23;20139;-85
2023/10/12 12:10:07;;;;;;;1.70;0.30;;;19.30;51.00;;;;;;6105797;23;20445;-85
2023/10/12 12:12:38;;;;;;;0.13;0.13;;;19.10;51.00;;;;;;6104509;23;20723;-82
2023/10/12 12:15:07;;;;;;;1.83;0.40;;;19.10;51.00;;;;;;6105671;23;20604;-84
2023/10/12 12:17:36;;;;;;;2.28;0.40;;;19.10;51.00;;;;;;6009412;23;20952;-82
2023/10/12 12:20:07;;;;;;;1.38;0.30;;;19.10;51.20;;;;;;6033552;23;20245;-83
2023/10/12 12:22:42;;;;;;;2.35;0.30;;;19.10;51.50;;;;;;6130567;23;20169;-84
2023/10/12 12:27:55;;;;;;;0.47;0.30;;;19.10;51.70;;;;;;6063492;23;20152;-81
2023/10/12 12:30:30;;;;;;;2.85;0.47;;;19.20;51.20;;;;;;6106576;23;20133;-82
2023/10/12 12:33:00;;;;;;;0.25;0.20;;;19.20;51.30;;;;;;6131087;23;20131;-80
2023/10/12 12:35:28;;;;;;;1.27;0.20;;;19.20;51.30;;;;;;6105046;23;20620;-82
2023/10/12 12:38:00;;;;;;;0.25;0.20;;;19.20;51.30;;;;;;6104301;23;20188;-83
2023/10/12 12:40:30;;;;;;;2.85;0.20;;;19.20;51.10;;;;;;6105588;23;20147;-81
2023/10/12 12:43:00;;;;;;;2.63;0.30;;;19.10;50.60;;;;;;6080581;23;20172;-85
2023/10/12 12:45:26;;;;;;;1.70;0.43;;;19.10;50.60;;;;;;5985182;24;20655;-82
2023/10/12 12:47:55;;;;;;;0.20;0.20;;;19.10;50.70;;;;;;5961310;24;20155;-84
2023/10/12 12:50:29;;;;;;;0.40;0.30;;;19.10;51.10;;;;;;5982831;24;20234;-83
2023/10/12 12:52:57;;;;;;;2.78;0.50;;;19.10;50.30;;;;;;5926962;24;20167;-85
2023/10/12 12:55:27;;;;;;;2.38;0.30;;;19.10;50.30;;;;;;5928131;24;20653;-87
2023/10/12 12:57:56;;;;;;;2.28;0.40;;;19.10;50.70;;;;;;5943820;24;20176;-84
2023/10/12 13:00:22;;;;;;;1.42;0.20;;;19.10;50.30;;;;;;5953833;24;20196;-84
2023/10/12 13:02:48;;;;;;;0.32;0.20;;;19.10;50.20;;;;;;5954663;24;20183;-80
2023/10/12 13:05:14;;;;;;;1.95;0.30;;;19.10;50.40;;;;;;5954303;24;20156;-83
2023/10/12 13:07:41;;;;;;;0.35;0.10;;;19.00;50.20;;;;;;5954570;24;20466;-83
2023/10/12 13:10:11;;;;;;;2.60;0.63;;;19.20;50.30;;;;;;5931407;24;20176;-84
2023/10/12 13:12:40;;;;;;;1.55;0.30;;;19.20;50.70;;;;;;5954771;24;20160;-81
2023/10/12 13:15:09;;;;;;;3.40;0.40;;;19.20;50.60;;;;;;5933385;24;20144;-81
2023/10/12 13:20:32;;;;;;;0.95;0.30;;;19.20;50.60;;;;;;5908464;24;20157;-83
2023/10/12 13:22:57;;;;;;;3.22;0.43;;;19.30;50.50;;;;;;5936955;23;20374;-84
2023/10/12 13:25:26;;;;;;;2.63;0.22;;;19.30;50.40;;;;;;6008947;23;20178;-82
2023/10/12 13:27:53;;;;;;;1.38;0.30;;;19.30;50.50;;;;;;6010104;23;20677;-82
2023/10/12 13:30:18;;;;;;;1.35;0.30;;;19.30;50.20;;;;;;6010577;23;20157;-83
2023/10/12 13:32:47;;;;;;;0.75;0.40;;;19.30;50.40;;;;;;6010684;23;20201;-85
2023/10/12 13:35:18;;;;;;;1.35;0.32;;;19.20;50.30;;;;;;6010097;23;20178;-83
2023/10/12 13:37:48;;;;;;;0.40;0.20;;;19.30;50.40;;;;;;6009853;23;20158;-85
2023/10/12 13:40:17;;;;;;;3.05;0.40;;;19.30;50.40;;;;;;5986655;23;20159;-83
2023/10/12 13:42:44;;;;;;;0.40;0.20;;;19.30;50.40;;;;;;5986664;23;20281;-83
2023/10/12 13:45:28;;;;;;;1.08;0.30;;;19.30;50.50;;;;;;6009972;23;20210;-81
2023/10/12 13:47:54;;;;;;;2.95;0.30;;;19.30;50.30;;;;;;5985542;23;20154;-84
2023/10/12 13:50:20;;;;;;;3.83;0.20;;;19.30;50.30;;;;;;5998236;23;20251;-84
2023/10/12 13:52:46;;;;;;;2.55;0.40;;;19.30;50.30;;;;;;5984064;23;20166;-82
2023/10/12 13:55:12;;;;;;;3.72;0.30;;;19.30;50.50;;;;;;5987165;23;20174;-83
2023/10/12 13:57:57;;;;;;;2.75;0.50;;;19.30;50.20;;;;;;5987101;23;20452;-81
2023/10/12 14:00:25;;;;;;;2.85;0.30;;;19.30;50.20;;;;;;6015721;23;20154;-83
2023/10/12 14:02:56;;;;;;;2.85;0.30;;;19.30;50.10;;;;;;5992942;23;20182;-85
2023/10/12 14:05:30;;;;;;;1.38;0.20;;;19.30;50.00;;;;;;6038082;23;20157;-84
2023/10/12 14:07:58;;;;;;;2.97;0.20;;;19.30;50.00;;;;;;5993984;23;20168;-80
2023/10/12 14:10:26;;;;;;;0.98;0.25;;;19.30;49.80;;;;;;6018750;23;20135;-81
2023/10/12 14:12:53;;;;;;;1.02;0.30;;;19.30;49.80;;;;;;6016606;23;20229;-80
2023/10/12 14:15:21;;;;;;;1.95;0.20;;;19.20;49.80;;;;;;5993249;23;20149;-82
2023/10/12 14:17:49;;;;;;;2.55;0.40;;;19.20;49.80;;;;;;5993413;23;20170;-83
2023/10/12 14:20:15;;;;;;;1.33;0.25;;;19.20;49.70;;;;;;6018426;23;20533;-82
2023/10/12 14:22:44;;;;;;;1.48;0.30;;;19.20;49.60;;;;;;5973766;23;20642;-80
2023/10/12 14:25:25;;;;;;;2.83;0.38;;;19.20;49.60;;;;;;6101345;23;20213;-83
2023/10/12 14:27:51;;;;;;;4.65;0.47;;;19.20;49.70;;;;;;6076761;23;20137;-84
2023/10/12 14:30:28;;;;;;;1.23;0.32;;;19.20;49.80;;;;;;6099834;23;20207;-84
2023/10/12 14:33:02;;;;;;;2.67;0.30;;;19.20;49.70;;;;;;6078393;23;20161;-81
2023/10/12 14:35:35;;;;;;;2.40;0.30;;;19.20;49.70;;;;;;6098904;23;20156;-83
2023/10/12 14:38:18;;;;;;;;;;;;;;;;;;;;;
2023/10/12 14:41:26;;;;;;;1.25;0.25;;;19.20;49.40;;;;;;6070391;23;20247;-87
2023/10/12 14:44:04;;;;;;;4.63;0.47;;;19.20;49.30;;;;;;5981078;23;20915;-86
2023/10/12 14:46:49;;;;;;;3.95;0.52;;;19.30;49.60;;;;;;5966703;23;20162;-84
2023/10/12 14:49:15;;;;;;;2.85;0.40;;;19.20;49.60;;;;;;5971190;23;20165;-85
2023/10/12 14:51:43;;;;;;;2.13;0.43;;;19.20;49.50;;;;;;5964511;23;20546;-84
2023/10/12 14:54:10;;;;;;;2.40;0.57;;;19.20;49.40;;;;;;5961990;23;20158;-84